createdAt,value
2023-03-30T00:01:36.883Z,84.16
2023-03-30T00:04:05.117Z,83.48
2023-03-30T00:06:34.269Z,83.59
2023-03-30T00:09:06.203Z,83.83
2023-03-30T00:11:34.371Z,84.01
2023-03-30T00:14:02.860Z,83.83
2023-03-30T00:16:30.785Z,84.18
2023-03-30T00:18:58.943Z,84.69
2023-03-30T00:21:28.159Z,84.47
2023-03-30T00:23:55.863Z,84.79
2023-03-30T00:26:24.958Z,84.70
2023-03-30T00:28:52.937Z,85.37
2023-03-30T00:31:21.155Z,85.38
2023-03-30T00:33:50.246Z,85.33
2023-03-30T00:36:18.096Z,85.46
2023-03-30T00:38:48.233Z,85.54
2023-03-30T00:41:16.968Z,85.36
2023-03-30T00:44:30.215Z,85.37
2023-03-30T00:46:59.983Z,85.60
2023-03-30T00:49:28.120Z,84.70
2023-03-30T00:51:55.946Z,84.65
2023-03-30T00:54:23.783Z,84.71
2023-03-30T00:56:51.619Z,83.88
2023-03-30T00:59:20.852Z,84.30
2023-03-30T01:01:50.255Z,84.49
2023-03-30T01:04:18.791Z,83.69
2023-03-30T01:06:47.983Z,83.91
2023-03-30T01:09:17.382Z,84.50
2023-03-30T01:11:45.487Z,84.84
2023-03-30T01:14:16.091Z,84.80
2023-03-30T01:16:53.571Z,84.61
2023-03-30T01:19:51.193Z,84.61
2023-03-30T01:23:05.214Z,84.00
2023-03-30T01:26:06.965Z,84.60
2023-03-30T01:28:47.411Z,85.31
2023-03-30T01:31:45.582Z,85.89
2023-03-30T01:34:37.037Z,86.54
2023-03-30T01:37:34.639Z,86.58
2023-03-30T01:44:59.852Z,88.24
2023-03-30T01:47:36.371Z,88.62
2023-03-30T01:50:09.844Z,88.31
2023-03-30T01:52:42.588Z,88.48
2023-03-30T01:55:15.000Z,89.25
2023-03-30T01:57:47.606Z,89.75
2023-03-30T02:00:19.217Z,90.18
2023-03-30T02:02:54.503Z,89.51
2023-03-30T02:05:24.100Z,89.25
2023-03-30T02:07:59.818Z,89.26
2023-03-30T02:10:31.544Z,88.01
2023-03-30T02:13:01.000Z,83.05
2023-03-30T02:15:35.607Z,81.57
2023-03-30T02:18:05.241Z,77.58
2023-03-30T02:20:34.525Z,76.74
2023-03-30T02:23:06.062Z,78.59
2023-03-30T02:25:35.941Z,78.07
2023-03-30T02:28:03.949Z,78.95
2023-03-30T02:30:34.390Z,79.64
2023-03-30T02:33:02.526Z,81.04
2023-03-30T02:35:51.602Z,82.32
2023-03-30T02:38:41.689Z,82.45
2023-03-30T02:41:22.468Z,83.93
2023-03-30T02:43:57.149Z,84.84
2023-03-30T02:46:50.492Z,85.79
2023-03-30T02:49:26.790Z,87.13
2023-03-30T02:52:08.904Z,88.60
2023-03-30T02:54:49.694Z,90.12
2023-03-30T02:57:30.832Z,91.73
2023-03-30T03:00:23.723Z,93.60
2023-03-30T03:02:57.389Z,95.50
2023-03-30T03:05:32.479Z,95.48
2023-03-30T03:08:24.794Z,95.63
2023-03-30T03:10:53.058Z,96.63
2023-03-30T03:13:22.052Z,97.47
2023-03-30T03:15:50.630Z,98.21
2023-03-30T03:18:18.472Z,99.93
2023-03-30T03:20:46.452Z,99.77
2023-03-30T03:23:14.485Z,100.00
2023-03-30T03:25:53.154Z,100.00
2023-03-30T03:28:21.625Z,100.00
2023-03-30T03:30:53.382Z,100.00
2023-03-30T03:33:27.061Z,100.00
2023-03-30T03:36:12.111Z,100.00
2023-03-30T03:38:46.019Z,100.00
2023-03-30T03:41:16.505Z,100.00
2023-03-30T03:43:45.128Z,100.00
2023-03-30T03:46:16.342Z,100.00
2023-03-30T03:48:44.869Z,100.00
2023-03-30T03:51:12.712Z,100.00
2023-03-30T03:53:40.662Z,100.00
2023-03-30T03:56:14.339Z,100.00
2023-03-30T03:58:43.613Z,100.00
2023-03-30T04:01:14.308Z,100.00
2023-03-30T04:03:42.512Z,100.00
2023-03-30T04:06:10.284Z,100.00
2023-03-30T04:08:38.139Z,100.00
2023-03-30T04:11:26.618Z,100.00
2023-03-30T04:14:24.455Z,100.00
2023-03-30T04:17:09.224Z,100.00
2023-03-30T04:20:04.816Z,100.00
2023-03-30T04:22:53.210Z,100.00
2023-03-30T04:25:52.853Z,100.00
2023-03-30T04:28:40.181Z,100.00
2023-03-30T04:31:23.856Z,100.00
2023-03-30T04:34:09.388Z,100.00
2023-03-30T04:36:51.446Z,100.00
2023-03-30T04:39:29.983Z,100.00
2023-03-30T04:42:19.969Z,100.00
2023-03-30T04:44:59.867Z,100.00
2023-03-30T04:47:47.371Z,100.00
2023-03-30T04:50:35.602Z,100.00
2023-03-30T04:53:26.274Z,100.00
2023-03-30T04:56:26.126Z,100.00
2023-03-30T04:58:57.021Z,100.00
2023-03-30T05:01:41.908Z,100.00
2023-03-30T05:04:13.491Z,100.00
2023-03-30T05:06:59.723Z,100.00
2023-03-30T05:09:49.190Z,100.00
2023-03-30T05:12:39.740Z,100.00
2023-03-30T05:15:15.913Z,100.00
2023-03-30T05:17:43.518Z,100.00
2023-03-30T05:20:31.656Z,100.00
2023-03-30T05:23:09.356Z,100.00
2023-03-30T05:25:56.053Z,100.00
2023-03-30T05:28:44.764Z,100.00
2023-03-30T05:31:38.152Z,100.00
2023-03-30T05:34:28.917Z,100.00
2023-03-30T05:37:11.697Z,100.00
2023-03-30T05:39:44.524Z,100.00
2023-03-30T05:42:35.080Z,100.00
2023-03-30T05:45:11.703Z,100.00
2023-03-30T05:47:58.255Z,100.00
2023-03-30T05:50:49.230Z,100.00
2023-03-30T05:53:28.555Z,100.00
2023-03-30T05:56:15.684Z,100.00
2023-03-30T05:58:57.001Z,100.00
2023-03-30T06:01:40.676Z,100.00
2023-03-30T06:04:08.862Z,100.00
2023-03-30T06:06:37.548Z,100.00
2023-03-30T06:09:06.630Z,100.00
2023-03-30T06:11:36.159Z,100.00
2023-03-30T06:14:12.921Z,100.00
2023-03-30T06:16:44.833Z,100.00
2023-03-30T06:19:14.523Z,100.00
2023-03-30T06:21:42.118Z,100.00
2023-03-30T06:24:27.748Z,100.00
2023-03-30T06:26:56.392Z,100.00
2023-03-30T06:29:24.246Z,100.00
2023-03-30T06:31:52.105Z,100.00
2023-03-30T06:34:46.019Z,100.00
2023-03-30T06:37:15.448Z,100.00
2023-03-30T06:39:45.848Z,100.00
2023-03-30T06:42:13.543Z,100.00
2023-03-30T06:44:58.187Z,100.00
2023-03-30T06:47:26.170Z,100.00
2023-03-30T06:49:53.758Z,100.00
2023-03-30T06:52:53.612Z,100.00
2023-03-30T06:55:24.011Z,100.00
2023-03-30T06:57:51.638Z,100.00
2023-03-30T07:00:20.622Z,100.00
2023-03-30T07:03:07.277Z,100.00
2023-03-30T07:06:02.758Z,100.00
2023-03-30T07:08:40.253Z,100.00
2023-03-30T07:11:09.666Z,100.00
2023-03-30T07:13:40.070Z,100.00
2023-03-30T07:16:08.909Z,100.00
2023-03-30T07:18:36.698Z,100.00
2023-03-30T07:21:06.108Z,100.00
2023-03-30T07:23:39.366Z,100.00
2023-03-30T07:26:08.978Z,100.00
2023-03-30T07:28:48.159Z,100.00
2023-03-30T07:31:17.128Z,100.00
2023-03-30T07:33:44.975Z,100.00
2023-03-30T07:36:20.831Z,100.00
2023-03-30T07:38:48.530Z,100.00
2023-03-30T07:41:19.634Z,100.00
2023-03-30T07:43:51.374Z,100.00
2023-03-30T07:46:19.142Z,100.00
2023-03-30T07:48:50.624Z,100.00
2023-03-30T07:51:20.114Z,100.00
2023-03-30T07:54:07.161Z,100.00
2023-03-30T07:56:52.499Z,100.00
2023-03-30T07:59:20.538Z,100.00
2023-03-30T08:01:50.205Z,100.00
2023-03-30T08:04:39.091Z,100.00
2023-03-30T08:07:08.049Z,100.00
2023-03-30T08:09:35.858Z,100.00
2023-03-30T08:12:05.464Z,100.00
2023-03-30T08:14:33.010Z,100.00
2023-03-30T08:17:00.570Z,100.00
2023-03-30T08:19:28.587Z,100.00
2023-03-30T08:21:57.146Z,100.00
2023-03-30T08:24:25.046Z,100.00
2023-03-30T08:26:52.626Z,100.00
2023-03-30T08:29:22.018Z,100.00
2023-03-30T08:31:49.572Z,100.00
2023-03-30T08:34:17.132Z,100.00
2023-03-30T08:36:44.748Z,100.00
2023-03-30T08:39:12.278Z,100.00
2023-03-30T08:42:01.874Z,100.00
2023-03-30T08:44:35.334Z,100.00
2023-03-30T08:47:04.727Z,100.00
2023-03-30T08:49:37.002Z,100.00
2023-03-30T08:52:06.290Z,100.00
2023-03-30T08:54:34.796Z,100.00
2023-03-30T08:57:09.967Z,100.00
2023-03-30T08:59:45.300Z,98.79
2023-03-30T09:02:18.481Z,98.13
2023-03-30T09:04:58.114Z,95.68
2023-03-30T09:07:28.794Z,92.56
2023-03-30T09:09:58.253Z,92.04
2023-03-30T09:12:34.302Z,91.07
2023-03-30T09:15:08.439Z,87.66
2023-03-30T09:17:42.649Z,85.95
2023-03-30T09:20:16.822Z,87.13
2023-03-30T09:22:46.590Z,80.67
2023-03-30T09:25:17.155Z,82.87
2023-03-30T09:27:53.022Z,84.60
2023-03-30T09:30:24.113Z,85.08
2023-03-30T09:33:03.365Z,87.33
2023-03-30T09:35:39.559Z,90.68
2023-03-30T09:38:10.025Z,91.32
2023-03-30T09:41:01.460Z,92.81
2023-03-30T09:43:34.878Z,93.36
2023-03-30T09:46:07.818Z,93.24
2023-03-30T09:48:43.123Z,93.13
2023-03-30T09:51:21.083Z,94.18
2023-03-30T09:53:51.618Z,92.20
2023-03-30T09:56:23.130Z,91.54
2023-03-30T09:58:50.842Z,92.09
2023-03-30T10:01:22.161Z,91.54
2023-03-30T10:04:08.976Z,90.02
2023-03-30T10:06:39.647Z,88.95
2023-03-30T10:09:12.431Z,87.54
2023-03-30T10:11:43.270Z,86.31
2023-03-30T10:14:29.484Z,83.57
2023-03-30T10:16:59.400Z,85.02
2023-03-30T10:19:27.472Z,80.23
2023-03-30T10:21:57.476Z,78.85
2023-03-30T10:24:27.922Z,79.49
2023-03-30T10:27:01.307Z,78.67
2023-03-30T10:29:29.980Z,78.64
2023-03-30T10:32:02.946Z,75.76
2023-03-30T10:34:37.135Z,75.99
2023-03-30T10:37:11.724Z,76.70
2023-03-30T10:39:41.796Z,76.79
2023-03-30T10:42:15.908Z,75.69
2023-03-30T10:44:48.221Z,76.36
2023-03-30T10:47:36.496Z,75.47
2023-03-30T10:50:13.443Z,75.41
2023-03-30T10:52:58.565Z,74.91
2023-03-30T10:55:34.622Z,73.83
2023-03-30T10:58:13.682Z,74.04
2023-03-30T11:00:56.764Z,74.79
2023-03-30T11:03:29.238Z,75.22
2023-03-30T11:06:04.839Z,74.36
2023-03-30T11:08:38.024Z,73.70
2023-03-30T11:11:07.868Z,76.29
2023-03-30T11:13:39.840Z,75.30
2023-03-30T11:16:13.722Z,74.86
2023-03-30T11:18:49.498Z,75.69
2023-03-30T11:21:22.347Z,75.99
2023-03-30T11:23:54.080Z,75.13
2023-03-30T11:26:25.649Z,72.99
2023-03-30T11:29:02.809Z,70.39
2023-03-30T11:31:57.222Z,69.79
2023-03-30T11:34:32.856Z,66.23
2023-03-30T11:37:09.280Z,67.30
2023-03-30T11:39:42.184Z,64.66
2023-03-30T11:42:17.186Z,63.07
2023-03-30T11:44:44.977Z,63.52
2023-03-30T11:47:30.969Z,63.47
2023-03-30T11:50:14.739Z,63.27
2023-03-30T11:52:50.117Z,62.96
2023-03-30T11:55:28.969Z,63.57
2023-03-30T11:58:07.933Z,64.70
2023-03-30T12:00:49.156Z,62.38
2023-03-30T12:03:28.032Z,60.83
2023-03-30T12:06:12.911Z,61.34
2023-03-30T12:08:56.277Z,61.69
2023-03-30T12:11:34.292Z,61.84
2023-03-30T12:18:26.172Z,60.46
2023-03-30T12:21:04.122Z,60.33
2023-03-30T12:23:43.085Z,59.67
2023-03-30T12:26:23.535Z,60.76
2023-03-30T12:29:40.573Z,59.54
2023-03-30T12:31:52.467Z,57.64
2023-03-30T12:34:20.896Z,56.38
2023-03-30T12:36:55.191Z,54.07
2023-03-30T12:39:31.207Z,51.62
2023-03-30T12:42:06.681Z,52.21
2023-03-30T12:44:42.732Z,55.62
2023-03-30T12:47:32.988Z,59.33
2023-03-30T12:50:15.916Z,63.49
2023-03-30T12:53:01.858Z,73.45
2023-03-30T12:55:43.325Z,77.83
2023-03-30T12:58:43.944Z,83.38
2023-03-30T13:01:24.889Z,80.37
2023-03-30T13:03:54.139Z,85.86
2023-03-30T13:06:29.786Z,83.97
2023-03-30T13:09:25.268Z,87.59
2023-03-30T13:12:22.069Z,89.46
2023-03-30T13:14:59.351Z,95.55
2023-03-30T13:17:27.732Z,93.25
2023-03-30T13:20:28.114Z,94.56
2023-03-30T13:23:05.897Z,88.09
2023-03-30T13:25:45.329Z,80.56
2023-03-30T13:28:48.768Z,83.18
2023-03-30T13:31:37.514Z,79.07
2023-03-30T13:34:17.315Z,77.60
2023-03-30T13:36:55.075Z,76.72
2023-03-30T13:39:28.949Z,70.28
2023-03-30T13:42:13.090Z,69.21
2023-03-30T13:44:56.781Z,74.26
2023-03-30T13:47:41.720Z,73.13
2023-03-30T13:50:21.467Z,76.17
2023-03-30T13:52:51.164Z,75.59
2023-03-30T13:55:33.133Z,76.25
2023-03-30T13:58:05.635Z,76.77
2023-03-30T14:00:44.737Z,77.79
2023-03-30T14:03:31.471Z,77.37
2023-03-30T14:06:05.505Z,78.44
2023-03-30T14:08:35.435Z,78.20
2023-03-30T14:11:06.890Z,77.39
2023-03-30T14:13:38.485Z,75.33
2023-03-30T14:16:08.179Z,69.41
2023-03-30T14:18:36.502Z,63.73
2023-03-30T14:21:07.519Z,57.77
2023-03-30T14:23:38.201Z,54.50
2023-03-30T14:26:07.601Z,49.32
2023-03-30T14:28:38.372Z,44.67
2023-03-30T14:31:13.282Z,39.24
2023-03-30T14:33:41.372Z,41.20
2023-03-30T14:36:12.497Z,40.64
2023-03-30T14:38:42.297Z,43.35
2023-03-30T14:41:14.467Z,45.94
2023-03-30T14:43:51.653Z,50.41
2023-03-30T14:46:19.401Z,47.35
2023-03-30T14:48:50.694Z,46.92
2023-03-30T14:51:27.003Z,44.37
2023-03-30T14:53:57.667Z,44.10
2023-03-30T14:56:25.875Z,43.70
2023-03-30T14:58:56.202Z,46.56
2023-03-30T15:01:31.063Z,47.94
2023-03-30T15:04:00.765Z,50.48
2023-03-30T15:06:30.962Z,49.79
2023-03-30T15:09:02.423Z,49.35
2023-03-30T15:11:32.416Z,45.65
2023-03-30T15:14:08.829Z,45.17
2023-03-30T15:16:38.462Z,41.53
2023-03-30T15:19:13.500Z,41.13
2023-03-30T15:21:41.674Z,39.60
2023-03-30T15:24:17.262Z,40.90
2023-03-30T15:26:47.578Z,40.58
2023-03-30T15:29:19.189Z,40.46
2023-03-30T15:31:46.763Z,39.13
2023-03-30T15:34:16.892Z,37.55
2023-03-30T15:36:45.489Z,38.62
2023-03-30T15:39:25.481Z,38.17
2023-03-30T15:42:01.460Z,35.71
2023-03-30T15:44:33.756Z,34.24
2023-03-30T15:47:02.190Z,35.06
2023-03-30T16:02:42.407Z,32.56
2023-03-30T16:05:18.360Z,30.93
2023-03-30T16:07:46.135Z,32.45
2023-03-30T16:10:15.305Z,34.29
2023-03-30T16:12:44.638Z,36.95
2023-03-30T16:15:14.666Z,37.72
2023-03-30T16:17:42.970Z,37.39
2023-03-30T16:20:17.412Z,35.51
2023-03-30T16:22:47.275Z,34.16
2023-03-30T16:25:15.889Z,35.93
2023-03-30T16:27:44.325Z,35.68
2023-03-30T16:30:18.066Z,33.65
2023-03-30T16:32:46.222Z,34.58
2023-03-30T16:35:16.262Z,35.34
2023-03-30T16:37:43.895Z,37.47
2023-03-30T16:40:20.025Z,39.61
2023-03-30T16:42:47.701Z,39.51
2023-03-30T16:45:15.522Z,37.29
2023-03-30T16:47:44.190Z,37.52
2023-03-30T16:50:20.822Z,39.23
2023-03-30T16:52:48.447Z,41.59
2023-03-30T16:55:16.554Z,44.26
2023-03-30T16:57:44.470Z,45.88
2023-03-30T17:00:19.728Z,48.23
2023-03-30T17:02:47.557Z,50.05
2023-03-30T17:05:15.375Z,51.30
2023-03-30T17:07:44.656Z,51.79
2023-03-30T17:10:26.332Z,54.42
2023-03-30T17:12:55.419Z,54.26
2023-03-30T17:15:24.661Z,54.85
2023-03-30T17:17:52.834Z,55.43
2023-03-30T17:20:24.697Z,56.19
2023-03-30T17:22:53.665Z,56.26
2023-03-30T17:25:23.688Z,56.93
2023-03-30T17:27:52.404Z,57.47
2023-03-30T17:30:23.734Z,58.44
2023-03-30T17:32:51.820Z,59.94
2023-03-30T17:35:19.591Z,60.00
2023-03-30T17:37:47.185Z,62.20
2023-03-30T17:40:22.347Z,63.25
2023-03-30T17:42:50.513Z,63.49
2023-03-30T17:45:19.929Z,64.68
2023-03-30T17:47:48.515Z,64.59
2023-03-30T17:50:20.824Z,66.04
2023-03-30T17:52:48.575Z,65.99
2023-03-30T17:55:19.398Z,65.47
2023-03-30T17:57:47.090Z,65.09
2023-03-30T18:00:21.432Z,64.65
2023-03-30T18:02:49.733Z,64.84
2023-03-30T18:05:17.968Z,64.63
2023-03-30T18:07:46.504Z,64.19
2023-03-30T18:10:20.332Z,63.74
2023-03-30T18:12:48.798Z,63.49
2023-03-30T18:15:18.645Z,63.68
2023-03-30T18:17:46.642Z,63.46
2023-03-30T18:20:27.459Z,63.38
2023-03-30T18:22:55.080Z,63.60
2023-03-30T18:25:32.408Z,63.37
2023-03-30T18:28:01.098Z,63.03
2023-03-30T18:30:30.456Z,63.29
2023-03-30T18:32:58.681Z,62.78
2023-03-30T18:35:28.724Z,63.05
2023-03-30T18:37:57.253Z,62.54
2023-03-30T18:40:31.219Z,62.30
2023-03-30T18:43:00.899Z,62.35
2023-03-30T18:45:30.265Z,62.20
2023-03-30T18:47:59.434Z,60.78
2023-03-30T18:50:33.082Z,61.09
2023-03-30T18:53:02.295Z,60.46
2023-03-30T18:55:31.993Z,60.22
2023-03-30T18:57:59.669Z,60.07
2023-03-30T19:00:29.178Z,60.17
2023-03-30T19:02:57.541Z,60.28
2023-03-30T19:05:27.254Z,59.86
2023-03-30T19:07:55.903Z,60.61
2023-03-30T19:10:26.561Z,59.08
2023-03-30T19:12:56.590Z,59.98
2023-03-30T19:15:26.675Z,59.93
2023-03-30T19:17:55.220Z,59.34
2023-03-30T19:20:24.687Z,59.46
2023-03-30T19:22:52.679Z,59.37
2023-03-30T19:25:22.501Z,59.73
2023-03-30T19:28:01.927Z,59.29
2023-03-30T19:30:33.386Z,59.26
2023-03-30T19:33:04.319Z,59.05
2023-03-30T19:35:32.914Z,59.19
2023-03-30T19:38:00.888Z,59.15
2023-03-30T19:40:28.577Z,59.47
2023-03-30T19:42:56.181Z,59.68
2023-03-30T19:45:25.154Z,60.52
2023-03-30T19:47:54.302Z,61.38
2023-03-30T19:50:24.751Z,61.97
2023-03-30T19:52:54.805Z,62.56
2023-03-30T19:55:22.621Z,63.09
2023-03-30T19:57:50.477Z,63.42
2023-03-30T20:00:19.689Z,63.62
2023-03-30T20:02:48.886Z,63.37
2023-03-30T20:05:18.702Z,64.39
2023-03-30T20:07:47.378Z,64.28
2023-03-30T20:10:18.728Z,66.01
2023-03-30T20:12:46.590Z,67.05
2023-03-30T20:15:14.238Z,66.30
2023-03-30T20:17:42.123Z,66.83
2023-03-30T20:20:12.593Z,67.76
2023-03-30T20:22:43.110Z,68.86
2023-03-30T20:25:13.356Z,69.98
2023-03-30T20:27:41.406Z,71.46
2023-03-30T20:30:11.534Z,72.54
2023-03-30T20:32:39.232Z,73.53
2023-03-30T20:35:08.272Z,75.54
2023-03-30T20:37:35.948Z,75.91
2023-03-30T20:40:09.728Z,77.01
2023-03-30T20:42:39.643Z,78.52
2023-03-30T20:45:08.620Z,79.45
2023-03-30T20:47:36.297Z,80.06
2023-03-30T20:50:04.601Z,81.17
2023-03-30T20:52:32.227Z,80.87
2023-03-30T20:54:59.826Z,82.30
2023-03-30T20:57:28.828Z,83.02
2023-03-30T20:59:56.484Z,82.99
2023-03-30T21:02:24.092Z,82.79
2023-03-30T21:04:52.927Z,83.29
2023-03-30T21:07:20.483Z,83.95
2023-03-30T21:09:48.052Z,83.84
2023-03-30T21:12:15.712Z,84.45
2023-03-30T21:14:45.833Z,85.04
2023-03-30T21:17:13.777Z,85.42
2023-03-30T21:19:41.362Z,86.06
2023-03-30T21:22:08.978Z,86.30
2023-03-30T21:24:36.635Z,86.92
2023-03-30T21:27:04.349Z,86.35
2023-03-30T21:29:32.393Z,86.52
2023-03-30T21:32:01.415Z,86.35
2023-03-30T21:34:29.010Z,86.02
2023-03-30T21:36:56.747Z,86.10
2023-03-30T21:39:25.037Z,85.81
2023-03-30T21:41:52.570Z,85.86
2023-03-30T21:44:20.254Z,85.70
2023-03-30T21:46:47.800Z,86.04
2023-03-30T21:49:17.118Z,85.39
2023-03-30T21:51:44.696Z,85.48
2023-03-30T21:54:12.361Z,86.05
2023-03-30T21:56:39.886Z,86.43
2023-03-30T21:59:07.863Z,87.14
2023-03-30T22:01:35.574Z,87.57
2023-03-30T22:04:06.015Z,86.21
2023-03-30T22:06:35.427Z,86.42
2023-03-30T22:09:03.063Z,82.82
2023-03-30T22:11:30.841Z,82.21
2023-03-30T22:13:58.579Z,82.64
2023-03-30T22:16:28.976Z,82.14
2023-03-30T22:18:56.791Z,82.00
2023-03-30T22:21:25.937Z,82.64
2023-03-30T22:23:55.534Z,82.42
2023-03-30T22:26:23.478Z,83.36
2023-03-30T22:28:51.136Z,83.09
2023-03-30T22:31:18.849Z,81.98
2023-03-30T22:33:47.908Z,81.26
2023-03-30T22:36:18.809Z,81.95
2023-03-30T22:38:46.718Z,82.27
2023-03-30T22:41:15.933Z,82.90
2023-03-30T22:43:43.534Z,83.78
2023-03-30T22:46:11.679Z,83.50
2023-03-30T22:48:41.275Z,83.57
2023-03-30T22:51:09.080Z,83.85
2023-03-30T22:53:38.486Z,84.36
2023-03-30T22:56:07.524Z,84.69
2023-03-30T22:58:37.001Z,84.89
2023-03-30T23:01:06.972Z,85.35
2023-03-30T23:03:34.803Z,85.16
2023-03-30T23:06:02.529Z,85.83
2023-03-30T23:08:30.843Z,85.64
2023-03-30T23:11:03.742Z,85.47
2023-03-30T23:13:31.889Z,85.32
2023-03-30T23:16:01.409Z,85.37
2023-03-30T23:18:29.191Z,86.05
2023-03-30T23:20:57.909Z,85.16
2023-03-30T23:23:25.622Z,85.76
2023-03-30T23:25:53.485Z,86.11
2023-03-30T23:28:21.274Z,86.64
2023-03-30T23:30:49.001Z,85.85
2023-03-30T23:33:18.078Z,86.59
2023-03-30T23:35:50.148Z,86.35
2023-03-30T23:38:18.051Z,87.13
2023-03-30T23:40:46.363Z,88.36
2023-03-30T23:43:14.038Z,88.30
2023-03-30T23:45:43.625Z,88.57
2023-03-30T23:48:11.340Z,88.24
2023-03-30T23:50:41.186Z,88.85
2023-03-30T23:53:09.405Z,90.53
2023-03-30T23:55:37.627Z,90.12
2023-03-30T23:58:05.916Z,90.26
